Terminal Aerodrome Forecast
Issued by NWS Charleston, WV

Current Version | Previous Version | Graphics & Text | Print | Product List | Glossary On
Versions: 1 2 3 4 5 6 7 8 9 10 11 12 13 14 15 16 17 18 19 20
774
FTUS41 KRLX 030844 AAA
TAFPKB
TAF AMD
KPKB 030844Z 0309/0406 15012G21KT 6SM SHRA OVC070
     FM031000 17014G22KT 3SM SHRA OVC025
      TEMPO 0310/0311 25010G25KT 2SM SHRA BKN015
     FM031300 18010G16KT 6SM SHRA BKN025
     FM031600 20010G16KT P6SM BKN025
     FM031800 20011G18KT P6SM BKN040
     FM032200 22010G16KT P6SM SCT050=

USA.gov is the U.S. government's official web portal to all federal, state and local government web resources and services.